Time;durP1;ratioP1;P1;durP2;ratioP2;P2;SDS_P1;SDS_P2;PMS_P1;PMS_P2;Temp;Humidity;BMP_temperature;BMP_pressure;BME280_temperature;BME280_humidity;BME280_pressure;Samples;Min_cycle;Max_cycle;Signal;HPM_P1;HPM_P2
2022/06/11 00:04:39;;;;;;;1.90;1.77;;;22.30;99.90;;;;;;10287124;28;20271;-84
2022/06/11 00:09:42;;;;;;;2.53;2.17;;;22.30;99.90;;;;;;10284947;28;20354;-85
2022/06/11 00:14:46;;;;;;;1.70;1.60;;;22.30;99.90;;;;;;10277955;28;20332;-85
2022/06/11 00:19:49;;;;;;;2.55;2.33;;;22.20;99.90;;;;;;10259417;28;20300;-85
2022/06/11 00:24:52;;;;;;;2.15;1.95;;;22.20;99.90;;;;;;10276918;28;20284;-84
2022/06/11 00:29:54;;;;;;;4.05;1.75;;;22.20;99.90;;;;;;10259865;28;20348;-84
2022/06/11 00:35:02;;;;;;;2.10;1.80;;;22.20;99.90;;;;;;10276277;28;20308;-85
2022/06/11 00:40:07;;;;;;;2.10;1.90;;;22.20;99.90;;;;;;10276756;28;20218;-85
2022/06/11 00:45:29;;;;;;;2.45;2.25;;;22.20;99.90;;;;;;10283809;28;20285;-85
2022/06/11 00:50:43;;;;;;;2.45;2.25;;;22.20;99.90;;;;;;10286229;28;20315;-85
2022/06/11 00:55:48;;;;;;;2.20;2.00;;;22.10;99.90;;;;;;10281331;28;20864;-85
2022/06/11 01:00:55;;;;;;;2.53;2.25;;;22.10;99.90;;;;;;10284890;28;20299;-85
2022/06/11 01:06:30;;;;;;;2.03;1.92;;;22.00;99.90;;;;;;10284984;28;20305;-84
2022/06/11 01:11:54;;;;;;;2.25;2.05;;;22.00;99.90;;;;;;10276142;28;20218;-85
2022/06/11 01:17:10;;;;;;;2.75;2.20;;;22.00;99.90;;;;;;10284664;28;20293;-85
2022/06/11 01:22:46;;;;;;;2.00;1.90;;;22.00;99.90;;;;;;10265191;28;20690;-85
2022/06/11 01:28:07;;;;;;;2.55;2.33;;;22.00;99.90;;;;;;10265772;28;20307;-85
2022/06/11 01:33:10;;;;;;;2.42;2.00;;;22.00;99.90;;;;;;10265106;28;20332;-85
2022/06/11 01:38:32;;;;;;;3.85;2.65;;;21.90;99.90;;;;;;10282388;28;20332;-85
2022/06/11 01:43:41;;;;;;;2.55;2.10;;;22.00;99.90;;;;;;10265248;28;20938;-85
2022/06/11 01:49:02;;;;;;;2.22;2.03;;;21.90;99.90;;;;;;10265553;28;20340;-84
2022/06/11 01:54:32;;;;;;;2.30;2.10;;;21.90;99.90;;;;;;10263897;28;20669;-85
2022/06/11 01:59:44;;;;;;;2.60;2.40;;;21.90;99.90;;;;;;10266166;28;20296;-85
2022/06/11 02:05:24;;;;;;;2.58;1.98;;;21.90;99.90;;;;;;10266047;28;20280;-85
2022/06/11 02:10:36;;;;;;;2.33;2.05;;;21.90;99.90;;;;;;10282306;28;20320;-85
2022/06/11 02:15:53;;;;;;;2.33;2.13;;;21.90;99.90;;;;;;10283412;28;20340;-84
2022/06/11 02:21:09;;;;;;;3.20;2.50;;;21.80;99.90;;;;;;10263038;28;20217;-85
2022/06/11 02:26:22;;;;;;;2.30;2.20;;;21.80;99.90;;;;;;10280049;28;20335;-85
2022/06/11 02:31:31;;;;;;;2.63;2.42;;;21.80;99.90;;;;;;10281318;28;20699;-84
2022/06/11 02:36:54;;;;;;;2.90;2.20;;;21.80;99.90;;;;;;10281597;28;20237;-84
2022/06/11 02:41:57;;;;;;;2.20;2.00;;;21.80;99.90;;;;;;10328852;28;20706;-85
2022/06/11 02:47:00;;;;;;;2.55;2.10;;;21.80;99.90;;;;;;10292023;28;20260;-85
2022/06/11 02:52:15;;;;;;;2.85;2.05;;;21.80;99.90;;;;;;10297910;28;20264;-85
2022/06/11 02:57:22;;;;;;;2.30;2.10;;;21.80;99.90;;;;;;10311415;28;20219;-85
2022/06/11 03:02:26;;;;;;;2.28;2.08;;;21.80;99.90;;;;;;10305402;28;20253;-84
2022/06/11 03:07:28;;;;;;;2.72;2.10;;;21.70;99.90;;;;;;10294287;28;20224;-84
2022/06/11 03:12:31;;;;;;;2.17;1.98;;;21.70;99.90;;;;;;10328317;28;20310;-85
2022/06/11 03:17:34;;;;;;;2.90;2.40;;;21.70;99.90;;;;;;10294204;28;20665;-85
2022/06/11 03:22:36;;;;;;;2.45;2.25;;;21.70;99.90;;;;;;10293297;28;20306;-85
2022/06/11 03:27:40;;;;;;;2.42;2.22;;;21.70;99.90;;;;;;10319900;28;20236;-85
2022/06/11 03:32:43;;;;;;;2.67;2.47;;;21.80;99.90;;;;;;10291807;28;20277;-85
2022/06/11 03:37:46;;;;;;;2.22;1.77;;;21.70;99.90;;;;;;10279791;28;20339;-85
2022/06/11 03:42:48;;;;;;;2.38;2.17;;;21.70;99.90;;;;;;10289097;28;20308;-84
2022/06/11 03:47:51;;;;;;;2.45;2.25;;;21.70;99.90;;;;;;10279974;28;20794;-84
2022/06/11 03:52:57;;;;;;;2.90;2.20;;;21.70;99.90;;;;;;10279642;28;20315;-85
2022/06/11 03:58:00;;;;;;;2.78;2.25;;;21.70;99.90;;;;;;10261288;28;20312;-85
2022/06/11 04:03:03;;;;;;;2.20;2.00;;;21.70;99.90;;;;;;10261746;28;20375;-84
2022/06/11 04:08:08;;;;;;;2.45;2.25;;;21.70;99.90;;;;;;10259505;28;20297;-85
2022/06/11 04:13:11;;;;;;;1.63;1.52;;;21.70;99.90;;;;;;10287406;28;20288;-85
2022/06/11 04:18:38;;;;;;;2.20;2.00;;;21.70;99.90;;;;;;10285800;28;20309;-85
2022/06/11 04:23:45;;;;;;;3.67;2.20;;;21.70;99.90;;;;;;10285727;28;20251;-85
2022/06/11 04:28:48;;;;;;;2.40;2.20;;;21.70;99.90;;;;;;10286637;28;20353;-85
2022/06/11 04:33:51;;;;;;;2.92;2.47;;;21.80;99.90;;;;;;10286357;28;20193;-85
2022/06/11 04:38:54;;;;;;;2.25;2.10;;;21.90;99.90;;;;;;10267778;28;20340;-84
2022/06/11 04:43:56;;;;;;;2.13;1.92;;;21.90;99.90;;;;;;10293233;28;20867;-85
2022/06/11 04:48:59;;;;;;;2.35;2.15;;;21.80;99.90;;;;;;10266848;28;20353;-84
2022/06/11 04:54:02;;;;;;;2.60;2.40;;;21.80;99.90;;;;;;10284941;28;20666;-84
2022/06/11 04:59:05;;;;;;;2.25;2.05;;;21.80;99.90;;;;;;10265916;28;20300;-84
2022/06/11 05:04:13;;;;;;;2.28;2.00;;;21.80;99.90;;;;;;10268417;28;20304;-85
2022/06/11 05:09:19;;;;;;;2.90;2.60;;;21.70;99.90;;;;;;10283898;28;20789;-84
2022/06/11 05:14:22;;;;;;;2.25;2.03;;;21.80;99.90;;;;;;10290707;28;20229;-84
2022/06/11 05:19:26;;;;;;;4.25;2.15;;;21.80;99.90;;;;;;10292104;28;20229;-87
2022/06/11 05:24:29;;;;;;;2.22;1.92;;;21.80;99.90;;;;;;10292094;28;20308;-85
2022/06/11 05:29:38;;;;;;;2.42;2.22;;;21.80;99.90;;;;;;10306707;28;20279;-85
2022/06/11 05:34:41;;;;;;;2.67;2.40;;;21.90;99.90;;;;;;10288176;28;20285;-85
2022/06/11 05:39:46;;;;;;;2.22;2.03;;;21.80;99.90;;;;;;10275243;28;20233;-85
2022/06/11 05:44:49;;;;;;;2.65;2.00;;;21.90;99.90;;;;;;10301198;28;20305;-85
2022/06/11 05:49:55;;;;;;;2.80;2.50;;;21.90;99.90;;;;;;10285971;28;20720;-85
2022/06/11 05:54:58;;;;;;;2.45;2.25;;;22.00;99.90;;;;;;10279127;28;20257;-86
2022/06/11 06:00:08;;;;;;;2.20;2.00;;;22.00;99.90;;;;;;10295041;28;20213;-85
2022/06/11 06:05:22;;;;;;;2.60;2.40;;;22.00;99.90;;;;;;10309697;28;20240;-86
2022/06/11 06:10:28;;;;;;;3.25;2.22;;;22.00;99.90;;;;;;10316142;28;20538;-86
2022/06/11 06:15:31;;;;;;;6.97;3.72;;;22.10;99.90;;;;;;10297480;28;20197;-89
2022/06/11 06:20:33;;;;;;;9.93;3.00;;;22.00;99.90;;;;;;10306499;28;20193;-86
2022/06/11 06:25:36;;;;;;;4.60;2.83;;;21.90;99.90;;;;;;10290391;28;20234;-85
2022/06/11 06:30:40;;;;;;;3.55;2.63;;;21.80;99.90;;;;;;10289388;28;20354;-85
2022/06/11 06:35:42;;;;;;;2.60;2.40;;;22.00;99.90;;;;;;10290447;28;20229;-86
2022/06/11 06:40:45;;;;;;;2.70;2.50;;;22.00;99.90;;;;;;10271152;28;20246;-86
2022/06/11 06:45:52;;;;;;;6.40;2.83;;;22.20;99.90;;;;;;10283234;28;20233;-85
2022/06/11 06:50:56;;;;;;;3.15;2.25;;;22.40;99.90;;;;;;10287697;28;20288;-84
2022/06/11 06:56:03;;;;;;;4.05;2.30;;;22.20;99.90;;;;;;10226583;29;20230;-85
2022/06/11 07:01:05;;;;;;;2.60;2.03;;;22.20;99.90;;;;;;10244884;29;20305;-85
2022/06/11 07:06:08;;;;;;;4.30;2.22;;;22.20;99.90;;;;;;10247242;29;20230;-85
2022/06/11 07:11:10;;;;;;;2.92;2.30;;;22.40;99.90;;;;;;10248587;29;20239;-85
2022/06/11 07:16:16;;;;;;;2.78;2.33;;;22.60;99.90;;;;;;10248257;29;20678;-86
2022/06/11 07:21:22;;;;;;;3.97;2.25;;;22.80;99.90;;;;;;10248040;29;20641;-86
2022/06/11 07:26:38;;;;;;;4.10;2.10;;;22.90;99.70;;;;;;10248849;29;20226;-86
2022/06/11 07:31:44;;;;;;;3.00;2.05;;;23.00;99.90;;;;;;10257571;28;20241;-86
2022/06/11 07:36:48;;;;;;;3.25;2.13;;;22.90;99.90;;;;;;10245706;29;20234;-86
2022/06/11 07:41:50;;;;;;;2.42;2.22;;;22.80;99.90;;;;;;10245457;29;20265;-86
2022/06/11 07:46:53;;;;;;;2.58;2.20;;;23.00;99.90;;;;;;10246839;29;20246;-87
2022/06/11 07:51:55;;;;;;;3.10;2.17;;;23.20;99.90;;;;;;10216741;28;20354;-86
2022/06/11 07:56:58;;;;;;;4.00;2.22;;;23.10;96.20;;;;;;10287380;28;20233;-86
2022/06/11 08:02:00;;;;;;;2.38;2.13;;;23.20;99.20;;;;;;10246266;29;20305;-87
2022/06/11 08:07:03;;;;;;;3.15;2.13;;;23.10;99.90;;;;;;10246215;28;20849;-86
2022/06/11 08:12:06;;;;;;;2.25;2.05;;;23.10;99.90;;;;;;10315180;28;20292;-86
2022/06/11 08:17:09;;;;;;;3.10;2.13;;;23.10;99.90;;;;;;10306979;28;20620;-86
2022/06/11 08:22:11;;;;;;;3.05;2.25;;;23.20;99.90;;;;;;10310930;28;20229;-86
2022/06/11 08:27:14;;;;;;;2.72;2.33;;;23.20;99.90;;;;;;10286783;28;20229;-86
2022/06/11 08:32:17;;;;;;;3.03;2.40;;;23.20;99.10;;;;;;10269744;28;20691;-86
2022/06/11 08:37:19;;;;;;;3.20;2.42;;;23.20;99.90;;;;;;10278286;28;20240;-86
2022/06/11 08:42:37;;;;;;;2.72;2.35;;;23.20;99.30;;;;;;10308271;28;20303;-86
2022/06/11 08:47:49;;;;;;;3.22;2.28;;;23.20;95.30;;;;;;10286643;28;20233;-85
2022/06/11 08:52:52;;;;;;;2.20;2.00;;;23.30;99.50;;;;;;10285752;28;20257;-85
2022/06/11 08:58:09;;;;;;;2.58;2.28;;;23.40;99.90;;;;;;10246759;29;20739;-86
2022/06/11 09:03:41;;;;;;;4.57;2.25;;;23.30;97.60;;;;;;10234750;29;20253;-86
2022/06/11 09:09:24;;;;;;;4.97;2.40;;;23.50;96.80;;;;;;10252527;29;20229;-86
2022/06/11 09:14:59;;;;;;;1.90;1.80;;;23.40;98.60;;;;;;10253226;29;20241;-86
2022/06/11 09:20:21;;;;;;;2.95;1.92;;;23.70;98.90;;;;;;10246908;28;20293;-86
2022/06/11 09:25:44;;;;;;;2.10;1.92;;;23.70;97.20;;;;;;10292835;28;20288;-86
2022/06/11 09:31:04;;;;;;;1.80;1.70;;;23.80;96.50;;;;;;10298656;28;20276;-86
2022/06/11 09:36:15;;;;;;;2.22;1.58;;;23.70;96.50;;;;;;10292395;28;20884;-86
2022/06/11 09:41:42;;;;;;;2.65;1.92;;;23.60;95.80;;;;;;10274328;28;20226;-85
2022/06/11 09:47:29;;;;;;;4.75;2.28;;;23.80;96.40;;;;;;10275018;28;20229;-86
2022/06/11 09:52:46;;;;;;;2.00;1.88;;;24.00;92.00;;;;;;10291745;28;20261;-85
2022/06/11 09:58:18;;;;;;;2.15;1.95;;;24.20;91.60;;;;;;9604445;28;10000621;-85
2022/06/11 10:03:39;;;;;;;2.05;1.95;;;24.40;91.90;;;;;;10327523;28;20256;-86
2022/06/11 10:08:57;;;;;;;5.90;2.55;;;24.20;92.30;;;;;;10293459;28;20631;-85
2022/06/11 10:14:29;;;;;;;2.40;2.20;;;24.20;94.00;;;;;;10271313;28;20291;-85
2022/06/11 10:19:51;;;;;;;2.53;1.85;;;24.40;95.30;;;;;;10287089;28;20230;-86
2022/06/11 10:25:18;;;;;;;2.65;2.00;;;24.50;90.60;;;;;;10287311;28;20667;-85
2022/06/11 10:30:39;;;;;;;4.05;2.25;;;24.70;91.40;;;;;;10253637;28;20974;-86
2022/06/11 10:35:47;;;;;;;7.18;2.03;;;24.50;94.30;;;;;;10286955;28;20229;-86
2022/06/11 10:40:51;;;;;;;2.83;2.15;;;24.50;87.30;;;;;;10302975;28;20291;-86
2022/06/11 10:45:55;;;;;;;2.13;2.03;;;24.40;92.50;;;;;;10268240;28;20253;-85
2022/06/11 10:50:59;;;;;;;3.47;1.88;;;24.40;95.50;;;;;;10285451;28;20261;-85
2022/06/11 10:56:17;;;;;;;2.85;1.85;;;24.10;90.20;;;;;;10268727;28;20261;-85
2022/06/11 11:01:26;;;;;;;5.82;1.92;;;24.20;90.50;;;;;;10273821;28;20221;-85
2022/06/11 11:06:34;;;;;;;4.18;2.08;;;24.00;94.90;;;;;;10289135;28;20630;-85
2022/06/11 11:11:58;;;;;;;2.20;1.98;;;23.90;90.40;;;;;;10260927;28;20202;-85
2022/06/11 11:17:03;;;;;;;2.42;2.15;;;23.70;96.30;;;;;;10274634;28;20205;-84
2022/06/11 11:22:06;;;;;;;2.22;2.00;;;23.80;93.10;;;;;;10290440;28;20626;-84
2022/06/11 11:27:20;;;;;;;2.13;2.03;;;23.70;96.30;;;;;;10288915;28;20225;-87
2022/06/11 11:32:34;;;;;;;2.85;2.03;;;23.60;96.70;;;;;;10271073;23;20278;-79
2022/06/11 11:37:38;;;;;;;7.40;2.30;;;23.80;96.90;;;;;;10248321;29;20234;-79
2022/06/11 11:42:40;;;;;;;2.28;1.92;;;23.90;90.90;;;;;;10247813;29;20650;-79
2022/06/11 11:47:43;;;;;;;4.15;2.45;;;24.20;95.00;;;;;;10245899;29;20237;-80
2022/06/11 11:52:51;;;;;;;2.95;2.20;;;24.20;91.80;;;;;;10228938;29;20237;-79
2022/06/11 11:58:00;;;;;;;1.95;1.85;;;24.00;95.50;;;;;;10193817;29;20321;-80
2022/06/11 12:03:05;;;;;;;8.98;2.13;;;24.00;95.50;;;;;;10207212;29;20258;-79
2022/06/11 12:08:20;;;;;;;5.13;2.13;;;24.00;88.70;;;;;;10194169;29;20222;-79
2022/06/11 12:13:57;;;;;;;3.30;2.17;;;24.10;92.50;;;;;;10213495;29;20256;-79
2022/06/11 12:19:19;;;;;;;1.88;1.65;;;23.80;90.40;;;;;;10162794;29;20243;-78
2022/06/11 12:24:27;;;;;;;1.40;1.30;;;24.30;88.10;;;;;;10167773;29;20310;-79
2022/06/11 12:29:37;;;;;;;4.13;1.60;;;24.20;83.20;;;;;;10167899;29;20283;-79
2022/06/11 12:34:40;;;;;;;6.88;1.92;;;24.10;83.70;;;;;;10274318;28;20237;-78
2022/06/11 12:40:13;;;;;;;3.17;2.10;;;24.50;78.00;;;;;;10287241;28;20974;-79
2022/06/11 12:45:30;;;;;;;4.15;1.70;;;24.60;87.10;;;;;;10266454;28;20327;-81
2022/06/11 12:50:48;;;;;;;5.38;2.42;;;24.70;78.80;;;;;;10261481;28;20258;-79
2022/06/11 12:56:15;;;;;;;1.77;1.63;;;25.20;79.70;;;;;;10267709;28;20242;-79
2022/06/11 13:01:31;;;;;;;3.63;1.95;;;25.50;78.90;;;;;;10252045;29;20928;-78
2022/06/11 13:06:46;;;;;;;4.15;2.70;;;25.30;78.60;;;;;;10267168;28;20256;-79
2022/06/11 13:12:03;;;;;;;2.50;2.20;;;25.10;85.70;;;;;;10249359;29;20794;-79
2022/06/11 13:17:32;;;;;;;3.85;1.85;;;25.00;85.10;;;;;;10244999;28;20292;-80
2022/06/11 13:22:47;;;;;;;2.78;2.58;;;24.80;82.70;;;;;;10231721;28;20254;-81
2022/06/11 13:28:17;;;;;;;4.43;2.13;;;24.70;89.30;;;;;;10232994;28;20230;-81
2022/06/11 13:33:25;;;;;;;2.53;2.30;;;24.60;84.60;;;;;;10247047;29;20321;-81
2022/06/11 13:38:52;;;;;;;3.40;2.30;;;24.20;91.30;;;;;;10253215;29;20301;-81
2022/06/11 13:44:03;;;;;;;2.30;2.10;;;24.20;90.00;;;;;;9562667;28;10000734;-81
2022/06/11 13:49:27;;;;;;;2.40;2.20;;;24.10;90.70;;;;;;10266246;28;20292;-81
2022/06/11 14:00:30;;;;;;;4.25;3.00;;;24.20;91.80;;;;;;10275563;28;20276;-81
2022/06/11 14:05:38;;;;;;;3.92;2.58;;;24.60;90.00;;;;;;10285301;28;20249;-81
2022/06/11 14:10:43;;;;;;;4.47;2.95;;;24.60;87.70;;;;;;10237264;29;20654;-82
2022/06/11 14:15:47;;;;;;;2.60;2.40;;;24.20;89.40;;;;;;10246096;28;20330;-82
2022/06/11 14:20:54;;;;;;;8.38;3.65;;;24.40;91.00;;;;;;10228589;28;20249;-81
2022/06/11 14:26:01;;;;;;;3.78;2.45;;;24.70;90.20;;;;;;10243486;28;20254;-81
2022/06/11 14:31:06;;;;;;;3.00;2.60;;;25.00;89.50;;;;;;10268854;28;20327;-81
2022/06/11 14:36:17;;;;;;;3.65;2.60;;;24.40;91.90;;;;;;10263635;28;20233;-81
2022/06/11 14:41:43;;;;;;;2.97;2.78;;;24.20;91.30;;;;;;10266934;28;20732;-81
2022/06/11 14:46:49;;;;;;;6.35;4.55;;;24.10;91.80;;;;;;10256992;28;20365;-82
2022/06/11 14:52:04;;;;;;;4.30;2.25;;;24.20;89.20;;;;;;10228175;29;20226;-81
2022/06/11 14:57:22;;;;;;;2.33;2.13;;;24.20;91.60;;;;;;10263250;28;20225;-81
2022/06/11 15:02:28;;;;;;;6.55;5.13;;;24.20;90.40;;;;;;10253030;28;20233;-82
2022/06/11 15:07:33;;;;;;;2.67;2.40;;;24.10;89.10;;;;;;10244458;28;20226;-81
2022/06/11 15:12:35;;;;;;;2.55;2.35;;;24.20;89.60;;;;;;10237549;28;20234;-80
2022/06/11 15:17:43;;;;;;;2.50;2.30;;;24.00;92.60;;;;;;10252063;28;20296;-80
2022/06/11 15:22:48;;;;;;;2.63;2.42;;;23.80;93.50;;;;;;10270272;28;20315;-81
2022/06/11 15:27:56;;;;;;;2.60;2.40;;;24.30;89.70;;;;;;10251885;28;20288;-80
2022/06/11 15:33:17;;;;;;;3.67;2.90;;;23.90;93.40;;;;;;10260785;28;20266;-80
2022/06/11 15:38:49;;;;;;;3.03;2.72;;;23.80;93.40;;;;;;10266265;28;20687;-81
2022/06/11 15:44:20;;;;;;;3.22;2.60;;;24.30;92.20;;;;;;10274793;28;20249;-80
2022/06/11 15:49:37;;;;;;;3.88;2.70;;;24.20;90.50;;;;;;10239123;28;20230;-80
2022/06/11 16:00:06;;;;;;;2.92;2.65;;;24.20;89.10;;;;;;10286203;28;20233;-80
2022/06/11 16:05:27;;;;;;;2.78;2.58;;;24.00;90.80;;;;;;10267798;28;20276;-80
2022/06/11 16:10:34;;;;;;;3.30;3.00;;;24.20;90.20;;;;;;10273033;28;20296;-79
2022/06/11 16:15:37;;;;;;;4.13;2.90;;;24.40;87.20;;;;;;10252820;28;20284;-80
2022/06/11 16:20:42;;;;;;;3.97;2.92;;;24.20;90.10;;;;;;10237148;29;20229;-78
2022/06/11 16:25:48;;;;;;;4.93;4.13;;;24.30;88.40;;;;;;10174853;29;20286;-78
2022/06/11 16:30:52;;;;;;;4.95;3.15;;;24.30;87.70;;;;;;10301926;23;20233;-86
2022/06/11 16:36:05;;;;;;;6.13;3.50;;;24.30;88.10;;;;;;10294394;28;20662;-85
2022/06/11 16:47:12;;;;;;;10.40;3.08;;;24.20;90.10;;;;;;10293982;28;20252;-85
2022/06/11 16:57:46;;;;;;;3.75;3.25;;;24.20;89.30;;;;;;10293996;28;20752;-85
2022/06/11 17:03:06;;;;;;;6.72;2.70;;;24.20;90.30;;;;;;10293738;28;20288;-85
2022/06/11 17:08:09;;;;;;;5.57;3.55;;;24.20;88.80;;;;;;10274868;28;20234;-87
2022/06/11 17:13:30;;;;;;;37.15;6.38;;;24.10;90.00;;;;;;10292247;28;20241;-83
2022/06/11 17:18:42;;;;;;;15.48;3.13;;;24.00;90.90;;;;;;10292273;28;20240;-84
2022/06/11 17:23:59;;;;;;;14.07;4.07;;;24.00;92.00;;;;;;10293030;28;20284;-84
2022/06/11 17:29:02;;;;;;;30.13;6.15;;;23.80;93.10;;;;;;10298293;28;20283;-83
2022/06/11 17:34:06;;;;;;;38.63;5.90;;;23.80;93.60;;;;;;10279129;28;20611;-83
2022/06/11 17:39:23;;;;;;;23.50;6.28;;;23.70;94.10;;;;;;10294865;28;20197;-84
2022/06/11 17:44:30;;;;;;;28.42;5.93;;;23.50;94.70;;;;;;10274429;28;20252;-84
2022/06/11 17:49:37;;;;;;;19.70;5.43;;;23.40;95.30;;;;;;10292406;28;20230;-83
2022/06/11 17:54:39;;;;;;;21.33;5.60;;;23.30;95.80;;;;;;10275028;28;20233;-84
2022/06/11 17:59:42;;;;;;;22.08;5.15;;;23.10;96.30;;;;;;10274473;28;20233;-84
2022/06/11 18:04:44;;;;;;;19.38;4.85;;;23.10;96.80;;;;;;9912926;28;10000565;-84
2022/06/11 18:09:47;;;;;;;13.02;4.75;;;23.00;97.10;;;;;;10287563;28;20237;-84
2022/06/11 18:14:49;;;;;;;14.68;4.53;;;22.90;97.70;;;;;;10288123;28;20249;-84
2022/06/11 18:19:52;;;;;;;12.55;5.00;;;22.80;98.20;;;;;;10289105;28;20915;-84
2022/06/11 18:30:19;;;;;;;17.02;6.22;;;22.80;98.60;;;;;;10286382;28;20952;-84
2022/06/11 18:35:23;;;;;;;12.00;5.05;;;22.70;98.90;;;;;;10269318;28;20276;-84
2022/06/11 18:40:27;;;;;;;11.63;5.40;;;22.70;99.20;;;;;;10286987;28;20283;-84
2022/06/11 18:45:30;;;;;;;18.42;6.00;;;22.60;99.50;;;;;;10269390;28;20295;-84
2022/06/11 18:50:33;;;;;;;12.20;5.28;;;22.60;99.70;;;;;;10269509;28;20284;-84
2022/06/11 18:55:37;;;;;;;14.68;4.97;;;22.50;99.90;;;;;;10285976;28;20260;-84
2022/06/11 19:00:44;;;;;;;15.40;4.93;;;22.40;99.90;;;;;;10286718;28;20229;-84
2022/06/11 19:05:47;;;;;;;11.23;5.00;;;22.40;99.90;;;;;;10285918;28;20713;-84
2022/06/11 19:10:49;;;;;;;6.80;4.40;;;22.30;99.90;;;;;;10285778;28;20237;-84
2022/06/11 19:15:55;;;;;;;8.98;4.68;;;22.30;99.90;;;;;;10268145;28;20763;-84
2022/06/11 19:20:58;;;;;;;8.43;4.18;;;22.30;99.90;;;;;;10267691;28;20292;-84
2022/06/11 19:31:42;;;;;;;7.35;4.13;;;22.20;99.90;;;;;;10517831;23;10000441;-84
2022/06/11 19:36:49;;;;;;;7.10;4.07;;;22.10;99.90;;;;;;10285400;28;20284;-84
2022/06/11 19:41:54;;;;;;;5.53;4.50;;;22.10;99.90;;;;;;10284536;28;20277;-84
2022/06/11 19:46:58;;;;;;;12.82;4.60;;;22.10;99.90;;;;;;10267189;28;20318;-84
2022/06/11 19:52:00;;;;;;;8.35;4.97;;;22.00;99.90;;;;;;10267375;28;20233;-84
2022/06/11 19:57:03;;;;;;;12.05;4.30;;;22.00;99.90;;;;;;10276073;28;20257;-85
2022/06/11 20:02:07;;;;;;;9.80;4.75;;;22.00;99.90;;;;;;10275705;28;20659;-84
2022/06/11 20:07:10;;;;;;;5.85;4.07;;;21.90;99.90;;;;;;10282829;28;20253;-85
2022/06/11 20:12:13;;;;;;;8.75;4.18;;;21.90;99.90;;;;;;10283347;28;20237;-84
2022/06/11 20:17:15;;;;;;;5.72;3.58;;;21.90;99.90;;;;;;10285619;28;20639;-85
2022/06/11 20:22:22;;;;;;;5.65;4.32;;;21.90;99.90;;;;;;10266566;28;20296;-85
2022/06/11 20:27:27;;;;;;;7.78;4.75;;;21.90;99.90;;;;;;10271458;28;20260;-85
2022/06/11 20:32:29;;;;;;;9.00;4.50;;;21.90;99.90;;;;;;10284201;28;20304;-84
2022/06/11 20:37:38;;;;;;;4.97;4.32;;;21.80;99.90;;;;;;10286410;28;20230;-85
2022/06/11 20:42:40;;;;;;;6.68;4.55;;;21.80;99.90;;;;;;10255891;28;20238;-85
2022/06/11 20:47:43;;;;;;;9.57;7.72;;;21.80;99.90;;;;;;10264411;28;21897;-84
2022/06/11 20:52:46;;;;;;;12.73;6.85;;;19.00;99.90;;;;;;10278611;28;20288;-85
2022/06/11 20:57:50;;;;;;;12.70;6.90;;;20.50;99.90;;;;;;10282915;28;20210;-86
2022/06/11 21:02:53;;;;;;;9.35;6.05;;;21.10;99.90;;;;;;10236887;29;20246;-86
2022/06/11 21:13:17;;;;;;;9.18;5.75;;;21.50;99.90;;;;;;10289382;28;20237;-85
2022/06/11 21:18:20;;;;;;;8.35;6.00;;;21.50;99.90;;;;;;10235753;29;20680;-85
2022/06/11 21:23:24;;;;;;;10.55;5.55;;;21.60;99.90;;;;;;10256048;28;20269;-84
2022/06/11 21:28:28;;;;;;;6.00;4.93;;;21.50;99.90;;;;;;10255602;28;20647;-84
2022/06/11 21:33:30;;;;;;;11.75;5.60;;;21.50;99.90;;;;;;10275161;28;20621;-84
2022/06/11 21:38:33;;;;;;;8.00;5.35;;;21.50;99.90;;;;;;10250375;28;20302;-84
2022/06/11 21:43:36;;;;;;;8.20;5.70;;;21.50;99.90;;;;;;10323705;28;20311;-84
2022/06/11 21:48:38;;;;;;;9.05;5.60;;;21.50;99.90;;;;;;10323723;28;21017;-84
2022/06/11 21:53:41;;;;;;;9.88;5.47;;;21.50;99.90;;;;;;10275666;28;20202;-84
2022/06/11 21:58:43;;;;;;;8.15;5.55;;;21.50;99.90;;;;;;10291632;28;20618;-84
2022/06/11 22:03:46;;;;;;;5.43;4.90;;;21.50;99.90;;;;;;10292266;28;20209;-84
2022/06/11 22:08:50;;;;;;;6.38;5.60;;;21.50;99.90;;;;;;10291418;28;20315;-84
2022/06/11 22:13:54;;;;;;;5.47;4.63;;;21.50;99.90;;;;;;10290336;28;20668;-84
2022/06/11 22:18:58;;;;;;;7.45;5.50;;;21.50;99.90;;;;;;10251217;28;20643;-84
2022/06/11 22:24:01;;;;;;;6.13;5.38;;;21.50;99.90;;;;;;10234483;29;20234;-84
2022/06/11 22:29:05;;;;;;;7.65;5.18;;;21.50;99.90;;;;;;10275116;28;20268;-85
2022/06/11 22:34:08;;;;;;;5.95;5.35;;;21.50;99.90;;;;;;10290467;28;20233;-84
2022/06/11 22:39:12;;;;;;;7.03;5.90;;;21.40;99.90;;;;;;10290817;28;20233;-85
2022/06/11 22:44:18;;;;;;;7.40;5.57;;;21.40;99.90;;;;;;10263637;28;20627;-84
2022/06/11 22:49:21;;;;;;;6.72;5.35;;;21.50;99.90;;;;;;10250288;28;20225;-85
2022/06/11 22:54:24;;;;;;;6.43;5.70;;;21.50;99.90;;;;;;10263926;28;20245;-85
2022/06/11 22:59:28;;;;;;;7.93;5.55;;;21.50;99.90;;;;;;10272014;28;20237;-84
2022/06/11 23:04:31;;;;;;;6.53;5.55;;;21.50;99.90;;;;;;10275059;28;20234;-84
2022/06/11 23:09:33;;;;;;;7.40;5.45;;;21.50;99.90;;;;;;10250173;28;20233;-84
2022/06/11 23:14:36;;;;;;;6.07;5.47;;;21.40;99.90;;;;;;10249740;29;20670;-84
2022/06/11 23:19:39;;;;;;;11.50;5.32;;;21.40;99.90;;;;;;10265460;28;20294;-85
2022/06/11 23:24:42;;;;;;;10.52;5.75;;;21.50;99.90;;;;;;10254498;28;20635;-84
2022/06/11 23:29:44;;;;;;;8.10;6.22;;;21.40;99.90;;;;;;10237009;28;20253;-84
2022/06/11 23:34:47;;;;;;;13.07;6.38;;;21.40;99.90;;;;;;10288454;28;20230;-84
2022/06/11 23:39:49;;;;;;;7.72;5.88;;;21.50;99.90;;;;;;10242437;28;20641;-84
2022/06/11 23:50:13;;;;;;;6.30;5.80;;;21.50;99.90;;;;;;10288479;28;20229;-84
2022/06/11 23:55:16;;;;;;;8.65;6.38;;;21.50;99.90;;;;;;10287193;28;20253;-84
